Ortonville, Michigan
Current Conditions -  °F | °C
As of 12:53 AM on Wednesday 28 Jan 2015 (Local Time) from KPTK Reporting Station
Clear Clear  
Wind Chill:   Ceiling: Unl
Heat Index: 10°   Visibility: 10mi
Dew Point:   Wind: 6mph
Humidity: 84%   Direction: 280°W
Pressure: 30.21"   Gusts: NA
Location:  42.85°N, 83.44°W
Report Text: KPTK 280553Z AUTO 28005KT 10SM CLR M12/M14 A3021 RMK AO2 SLP248 T11221144 11072 21128 53005
Loading
Personal Weather Stations






























Interactive Weather Map New forecast layout! Learn more

10-Day Weather Forecast

Advertisements
Track Severe Weather on mobile